Time;durP1;ratioP1;P1;durP2;ratioP2;P2;SDS_P1;SDS_P2;PMS_P1;PMS_P2;Temp;Humidity;BMP_temperature;BMP_pressure;BME280_temperature;BME280_humidity;BME280_pressure;Samples;Min_cycle;Max_cycle;Signal;HPM_P1;HPM_P2
2023/02/16 00:01:16;;;;;;;;;;;;;;;16.13;61.56;102387.59;6890701;19;10000520;-78
2023/02/16 00:03:45;;;;;;;;;;;;;;;16.07;61.93;102391.44;7405557;19;1522;-78
2023/02/16 00:06:15;;;;;;;;;;;;;;;16.08;61.63;102398.53;7405706;19;1866;-79
2023/02/16 00:08:47;;;;;;;;;;;;;;;16.01;61.57;102395.28;7406772;19;1737;-79
2023/02/16 00:13:58;;;;;;;;;;;;;;;16.01;61.73;102375.75;7403294;19;1733;-79
2023/02/16 00:16:27;;;;;;;;;;;;;;;15.99;61.46;102390.97;7404018;19;1752;-78
2023/02/16 00:18:55;;;;;;;;;;;;;;;15.99;61.45;102385.63;7404719;19;1519;-79
2023/02/16 00:21:24;;;;;;;;;;;;;;;15.95;61.50;102384.06;7405027;19;1495;-79
2023/02/16 00:23:55;;;;;;;;;;;;;;;15.96;61.55;102383.97;7411029;19;1471;-78
2023/02/16 00:26:24;;;;;;;;;;;;;;;15.94;61.36;102379.66;7408808;19;1842;-78
2023/02/16 00:28:53;;;;;;;;;;;;;;;15.97;61.79;102376.84;7407730;19;1830;-78
2023/02/16 00:31:25;;;;;;;;;;;;;;;16.21;63.27;102385.41;7411137;19;1744;-78
2023/02/16 00:33:54;;;;;;;;;;;;;;;16.28;63.14;102384.16;7412381;19;1494;-78
2023/02/16 00:36:24;;;;;;;;;;;;;;;16.20;62.64;102387.22;7409191;19;1859;-78
2023/02/16 00:38:56;;;;;;;;;;;;;;;16.09;62.91;102385.09;7413526;19;1835;-78
2023/02/16 00:44:07;;;;;;;;;;;;;;;15.95;62.57;102386.72;7411608;19;1598;-78
2023/02/16 00:46:36;;;;;;;;;;;;;;;15.95;62.53;102392.91;7411302;19;1843;-78
2023/02/16 00:49:05;;;;;;;;;;;;;;;15.90;62.62;102387.81;7410264;19;1902;-78
2023/02/16 00:51:33;;;;;;;;;;;;;;;15.94;62.28;102401.88;7409862;19;1765;-78
2023/02/16 00:54:04;;;;;;;;;;;;;;;15.88;62.46;102397.69;7409197;19;1795;-78
2023/02/16 00:56:32;;;;;;;;;;;;;;;15.87;62.32;102398.63;7410547;19;1393;-78
2023/02/16 00:59:02;;;;;;;;;;;;;;;15.87;62.29;102387.09;7407322;19;1768;-78
2023/02/16 01:01:32;;;;;;;;;;;;;;;15.84;62.30;102395.25;7408393;19;1860;-78
2023/02/16 01:04:02;;;;;;;;;;;;;;;15.83;62.10;102377.50;7411713;19;1823;-78
2023/02/16 01:11:57;;;;;;;;;;;;;;;15.88;63.10;102400.38;7411567;19;1625;-78
2023/02/16 01:14:26;;;;;;;;;;;;;;;15.87;63.06;102374.59;7410101;19;1744;-78
2023/02/16 01:16:54;;;;;;;;;;;;;;;15.84;62.73;102389.94;7409348;19;1953;-78
2023/02/16 01:19:23;;;;;;;;;;;;;;;15.82;62.62;102382.00;7409387;19;1753;-79
2023/02/16 01:21:52;;;;;;;;;;;;;;;15.77;62.37;102368.00;7411704;19;1740;-79
2023/02/16 01:24:22;;;;;;;;;;;;;;;15.75;62.32;102379.69;7411059;19;1797;-78
2023/02/16 01:26:51;;;;;;;;;;;;;;;15.74;62.59;102368.16;7409083;19;1841;-78
2023/02/16 01:29:21;;;;;;;;;;;;;;;15.71;62.63;102365.59;7408997;19;1772;-79
2023/02/16 01:31:50;;;;;;;;;;;;;;;15.76;62.92;102370.78;7409990;19;1688;-79
2023/02/16 01:34:19;;;;;;;;;;;;;;;15.73;62.40;102371.75;7412148;19;1329;-78
2023/02/16 01:36:48;;;;;;;;;;;;;;;15.71;62.59;102354.94;7410573;19;1784;-79
2023/02/16 01:39:17;;;;;;;;;;;;;;;15.70;62.32;102367.41;7410793;19;1849;-79
2023/02/16 01:41:57;;;;;;;;;;;;;;;15.68;62.06;102358.63;7409632;19;1449;-79
2023/02/16 01:44:27;;;;;;;;;;;;;;;15.69;62.34;102354.16;7409668;19;1777;-79
2023/02/16 01:46:59;;;;;;;;;;;;;;;15.65;62.19;102347.25;7408734;19;1849;-79
2023/02/16 01:49:27;;;;;;;;;;;;;;;15.64;62.36;102342.88;7410307;19;1732;-80
2023/02/16 01:51:58;;;;;;;;;;;;;;;15.67;62.21;102356.03;7410563;19;1727;-79
2023/02/16 01:54:40;;;;;;;;;;;;;;;15.62;62.36;102347.41;7408271;19;1880;-79
2023/02/16 01:57:23;;;;;;;;;;;;;;;15.62;62.23;102358.94;7408231;19;1483;-79
2023/02/16 02:00:04;;;;;;;;;;;;;;;15.61;62.39;102335.84;7407629;19;1803;-78
2023/02/16 02:02:36;;;;;;;;;;;;;;;15.58;61.82;102348.47;7406709;19;1711;-78
2023/02/16 02:07:52;;;;;;;;;;;;;;;15.59;61.96;102345.72;7411845;19;828;-79
2023/02/16 02:10:23;;;;;;;;;;;;;;;15.57;61.94;102334.28;7409724;19;1478;-79
2023/02/16 02:12:57;;;;;;;;;;;;;;;15.55;61.65;102344.16;7414697;19;1886;-78
2023/02/16 02:15:28;;;;;;;;;;;;;;;15.56;61.96;102337.91;7412340;19;1741;-79
2023/02/16 02:17:56;;;;;;;;;;;;;;;15.54;62.17;102336.22;7416759;19;1450;-79
2023/02/16 02:23:29;;;;;;;;;;;;;;;15.52;61.67;102347.84;7417649;19;1787;-79
2023/02/16 02:26:33;;;;;;;;;;;;;;;15.51;61.67;102339.91;7414943;19;1858;-79
2023/02/16 02:29:14;;;;;;;;;;;;;;;15.48;61.20;102329.41;7415692;19;1747;-79
2023/02/16 02:31:48;;;;;;;;;;;;;;;15.47;61.44;102323.19;7413399;19;1480;-79
2023/02/16 02:34:21;;;;;;;;;;;;;;;15.47;61.83;102347.19;7418141;19;1109;-79
2023/02/16 02:36:53;;;;;;;;;;;;;;;15.48;61.51;102351.59;7417857;19;1978;-79
2023/02/16 02:39:30;;;;;;;;;;;;;;;15.45;62.21;102335.72;7418571;19;1826;-79
2023/02/16 02:42:08;;;;;;;;;;;;;;;15.48;62.25;102346.25;7419090;19;1447;-79
2023/02/16 02:44:41;;;;;;;;;;;;;;;15.71;61.10;102337.13;7415154;19;1794;-79
2023/02/16 02:47:10;;;;;;;;;;;;;;;15.89;61.31;102329.19;7415912;19;1931;-79
2023/02/16 02:49:40;;;;;;;;;;;;;;;15.76;61.69;102347.63;7414847;19;1486;-79
2023/02/16 02:52:10;;;;;;;;;;;;;;;15.79;60.83;102339.44;7418090;19;1395;-79
2023/02/16 03:02:52;;;;;;;;;;;;;;;18.68;53.91;102330.56;7417246;19;1748;-79
2023/02/16 03:05:22;;;;;;;;;;;;;;;18.86;53.87;102309.84;7416764;19;1744;-79
2023/02/16 03:07:52;;;;;;;;;;;;;;;18.93;53.49;102324.59;7417204;19;1954;-79
2023/02/16 03:13:07;;;;;;;;;;;;;;;19.11;52.87;102329.75;7418251;19;1704;-79
2023/02/16 03:15:36;;;;;;;;;;;;;;;18.98;53.17;102322.50;7417039;19;1826;-79
2023/02/16 03:31:37;;;;;;;;;;;;;;;19.26;52.99;102324.25;7417608;19;1451;-79
2023/02/16 03:34:07;;;;;;;;;;;;;;;19.33;52.61;102319.34;7415556;19;1694;-79
2023/02/16 03:36:37;;;;;;;;;;;;;;;19.28;53.16;102337.56;7415594;19;1653;-79
2023/02/16 03:39:05;;;;;;;;;;;;;;;19.23;53.11;102321.75;7413971;19;1871;-79
2023/02/16 03:41:35;;;;;;;;;;;;;;;19.21;53.36;102338.91;7417215;19;1498;-79
2023/02/16 03:44:06;;;;;;;;;;;;;;;19.23;53.24;102334.31;7414164;19;1495;-79
2023/02/16 03:46:35;;;;;;;;;;;;;;;19.23;52.93;102337.84;7416103;19;1854;-79
2023/02/16 03:49:03;;;;;;;;;;;;;;;19.34;52.69;102337.19;7417805;19;1395;-79
2023/02/16 03:51:32;;;;;;;;;;;;;;;19.44;52.78;102335.59;7417959;19;1866;-79
2023/02/16 03:54:00;;;;;;;;;;;;;;;19.35;52.50;102328.16;7416622;19;1974;-79
2023/02/16 03:56:29;;;;;;;;;;;;;;;18.45;54.96;102343.59;7416713;19;1736;-79
2023/02/16 03:58:57;;;;;;;;;;;;;;;17.77;56.24;102333.31;7415125;19;1807;-79
2023/02/16 04:01:28;;;;;;;;;;;;;;;17.46;57.42;102345.78;7415875;19;1996;-80
2023/02/16 04:03:57;;;;;;;;;;;;;;;17.80;56.28;102346.50;7417527;19;1830;-79
2023/02/16 04:06:25;;;;;;;;;;;;;;;18.33;55.47;102327.41;7414691;19;1825;-79
2023/02/16 04:08:54;;;;;;;;;;;;;;;18.33;55.15;102328.25;7416192;19;1680;-79
2023/02/16 04:14:02;;;;;;;;;;;;;;;18.83;53.65;102331.50;7415781;19;1728;-79
2023/02/16 04:16:35;;;;;;;;;;;;;;;18.84;53.87;102333.19;7416473;19;1756;-79
2023/02/16 04:19:05;;;;;;;;;;;;;;;18.88;53.59;102338.28;7417077;19;1807;-79
2023/02/16 04:21:33;;;;;;;;;;;;;;;18.83;54.07;102321.63;7415671;19;1898;-79
2023/02/16 04:24:02;;;;;;;;;;;;;;;18.64;54.03;102324.56;7416166;19;1953;-80
2023/02/16 04:26:31;;;;;;;;;;;;;;;18.44;54.74;102335.63;7413182;19;1855;-79
2023/02/16 04:28:59;;;;;;;;;;;;;;;18.35;54.86;102331.72;7416122;19;1756;-79
2023/02/16 04:31:28;;;;;;;;;;;;;;;18.42;54.66;102332.19;7412877;19;1633;-80
2023/02/16 04:33:58;;;;;;;;;;;;;;;18.62;54.00;102334.53;7414194;19;1398;-79
2023/02/16 04:36:27;;;;;;;;;;;;;;;18.71;53.97;102326.88;7412743;19;1902;-79
2023/02/16 04:38:56;;;;;;;;;;;;;;;18.60;54.38;102330.19;7412871;19;1519;-79
2023/02/16 04:41:25;;;;;;;;;;;;;;;18.68;53.95;102326.09;7414979;19;1843;-79
2023/02/16 04:43:53;;;;;;;;;;;;;;;18.82;54.19;102329.75;7413890;19;1749;-79
2023/02/16 04:46:22;;;;;;;;;;;;;;;18.86;53.75;102347.38;7411846;19;1836;-79
2023/02/16 04:48:51;;;;;;;;;;;;;;;18.86;53.58;102329.47;7414943;19;1744;-79
2023/02/16 04:51:22;;;;;;;;;;;;;;;18.82;53.88;102336.00;7414957;19;1747;-79
2023/02/16 04:53:51;;;;;;;;;;;;;;;18.81;53.77;102346.81;7416118;19;1819;-79
2023/02/16 04:56:19;;;;;;;;;;;;;;;18.55;54.40;102335.84;7413147;19;1439;-79
2023/02/16 04:58:48;;;;;;;;;;;;;;;18.46;54.69;102339.09;7412914;19;1969;-79
2023/02/16 05:01:20;;;;;;;;;;;;;;;18.41;54.88;102336.69;7412177;19;1878;-79
2023/02/16 05:03:48;;;;;;;;;;;;;;;18.44;54.49;102330.28;7415327;19;1749;-79
2023/02/16 05:06:17;;;;;;;;;;;;;;;18.57;54.07;102339.28;7413934;19;1813;-79
2023/02/16 05:08:48;;;;;;;;;;;;;;;18.69;53.58;102327.81;7410687;19;1494;-79
2023/02/16 05:16:38;;;;;;;;;;;;;;;18.82;53.62;102319.03;7413967;19;1799;-79
2023/02/16 05:19:07;;;;;;;;;;;;;;;18.84;53.40;102346.59;7413536;19;1756;-79
2023/02/16 05:21:36;;;;;;;;;;;;;;;18.85;53.38;102343.81;7413764;19;1830;-79
2023/02/16 05:24:08;;;;;;;;;;;;;;;18.85;53.27;102345.66;7414594;19;1748;-79
2023/02/16 05:26:38;;;;;;;;;;;;;;;18.72;53.67;102350.00;7414771;19;1837;-79
2023/02/16 05:29:06;;;;;;;;;;;;;;;18.59;54.03;102345.41;7415172;19;1744;-79
2023/02/16 05:31:35;;;;;;;;;;;;;;;18.52;53.99;102360.13;7413585;19;1533;-80
2023/02/16 05:34:04;;;;;;;;;;;;;;;18.41;54.43;102360.78;7413986;19;1430;-80
2023/02/16 05:36:33;;;;;;;;;;;;;;;18.45;54.47;102369.50;7409793;19;1818;-79
2023/02/16 05:39:01;;;;;;;;;;;;;;;18.58;53.96;102380.34;7413130;19;1765;-79
2023/02/16 05:41:33;;;;;;;;;;;;;;;18.67;53.98;102363.72;7415192;19;1799;-79
2023/02/16 05:44:03;;;;;;;;;;;;;;;18.66;53.85;102357.50;7412192;19;1488;-80
2023/02/16 05:46:32;;;;;;;;;;;;;;;18.82;53.53;102369.94;7410946;19;1846;-79
2023/02/16 05:49:02;;;;;;;;;;;;;;;18.91;53.60;102361.34;7411824;19;1814;-79
2023/02/16 05:51:30;;;;;;;;;;;;;;;18.91;53.28;102377.44;7413299;19;1820;-79
2023/02/16 05:53:58;;;;;;;;;;;;;;;18.91;53.43;102392.66;7410988;19;1501;-79
2023/02/16 05:56:27;;;;;;;;;;;;;;;18.84;53.44;102381.44;7412782;19;1748;-79
2023/02/16 05:58:59;;;;;;;;;;;;;;;18.74;53.85;102390.97;7411375;19;1704;-79
2023/02/16 06:01:29;;;;;;;;;;;;;;;18.65;53.75;102387.91;7410124;19;1752;-79
2023/02/16 06:03:57;;;;;;;;;;;;;;;18.57;54.10;102384.84;7414027;19;1741;-79
2023/02/16 06:06:25;;;;;;;;;;;;;;;18.60;53.93;102378.44;7411005;19;1482;-79
2023/02/16 06:08:54;;;;;;;;;;;;;;;18.52;54.25;102392.28;7411440;19;1812;-79
2023/02/16 06:14:06;;;;;;;;;;;;;;;18.74;53.69;102383.81;7410784;19;1700;-79
2023/02/16 06:16:35;;;;;;;;;;;;;;;18.88;53.18;102391.03;7411439;19;1729;-79
2023/02/16 06:19:03;;;;;;;;;;;;;;;19.13;53.27;102406.44;7411551;19;1826;-80
2023/02/16 06:21:32;;;;;;;;;;;;;;;19.17;53.03;102394.56;7407478;19;1803;-79
2023/02/16 06:24:01;;;;;;;;;;;;;;;19.24;53.06;102401.28;7408888;19;1673;-80
2023/02/16 06:26:34;;;;;;;;;;;;;;;19.18;53.11;102392.72;7413387;19;1800;-80
2023/02/16 06:29:02;;;;;;;;;;;;;;;19.10;53.74;102398.59;7409417;19;1838;-80
2023/02/16 06:31:35;;;;;;;;;;;;;;;18.98;54.11;102400.22;7408867;19;1458;-80
2023/02/16 06:34:03;;;;;;;;;;;;;;;18.90;54.38;102375.72;7408309;19;1314;-80
2023/02/16 06:36:32;;;;;;;;;;;;;;;18.91;54.57;102390.84;7398765;19;1652;-80
2023/02/16 06:39:01;;;;;;;;;;;;;;;18.88;54.89;102383.00;7399969;19;1561;-79
2023/02/16 06:41:38;;;;;;;;;;;;;;;18.90;54.88;102396.28;7400679;19;1835;-79
2023/02/16 06:44:08;;;;;;;;;;;;;;;18.93;54.76;102401.47;7399094;19;1870;-79
2023/02/16 06:46:39;;;;;;;;;;;;;;;18.93;54.93;102398.78;7398691;19;1767;-80
2023/02/16 06:49:07;;;;;;;;;;;;;;;18.92;55.14;102397.94;7402753;19;1844;-79
2023/02/16 06:51:36;;;;;;;;;;;;;;;18.96;55.10;102396.78;7400457;19;1483;-79
2023/02/16 06:54:05;;;;;;;;;;;;;;;18.99;55.30;102391.22;7408431;19;1569;-79
2023/02/16 06:56:34;;;;;;;;;;;;;;;19.08;55.20;102373.72;7409259;19;1557;-79
2023/02/16 06:59:02;;;;;;;;;;;;;;;19.12;55.54;102385.97;7415210;19;1494;-80
2023/02/16 07:01:31;;;;;;;;;;;;;;;18.84;56.04;102381.44;7414419;19;1547;-79
2023/02/16 07:04:02;;;;;;;;;;;;;;;18.49;56.94;102401.38;7415219;19;1806;-79
2023/02/16 07:06:32;;;;;;;;;;;;;;;18.22;58.00;102400.34;7412867;19;1612;-79
2023/02/16 07:09:00;;;;;;;;;;;;;;;18.01;58.83;102397.97;7412479;19;1837;-79
2023/02/16 07:11:29;;;;;;;;;;;;;;;18.19;58.55;102406.75;7412245;19;1583;-79
2023/02/16 07:13:57;;;;;;;;;;;;;;;18.77;57.20;102402.38;7418102;19;1562;-80
2023/02/16 07:16:26;;;;;;;;;;;;;;;19.16;56.22;102403.59;7420666;19;1702;-81
2023/02/16 07:18:55;;;;;;;;;;;;;;;19.57;55.07;102385.78;7418539;19;1882;-80
2023/02/16 07:21:27;;;;;;;;;;;;;;;19.64;54.30;102382.59;7417076;19;1664;-80
2023/02/16 07:23:55;;;;;;;;;;;;;;;19.68;53.97;102384.13;7418605;19;1580;-81
2023/02/16 07:26:24;;;;;;;;;;;;;;;19.51;54.78;102380.81;7421284;19;1764;-81
2023/02/16 07:28:53;;;;;;;;;;;;;;;19.48;54.93;102387.25;7416733;19;1811;-81
2023/02/16 07:31:25;;;;;;;;;;;;;;;19.43;54.59;102370.56;7417583;19;1443;-80
2023/02/16 07:33:53;;;;;;;;;;;;;;;19.50;54.22;102395.19;7416930;19;1516;-80
2023/02/16 07:36:22;;;;;;;;;;;;;;;19.50;53.69;102389.81;7414255;19;1890;-80
2023/02/16 07:38:53;;;;;;;;;;;;;;;19.40;53.96;102379.69;7415926;19;1391;-80
2023/02/16 07:41:22;;;;;;;;;;;;;;;19.28;53.96;102369.75;7405082;19;1791;-80
2023/02/16 07:43:50;;;;;;;;;;;;;;;19.31;53.87;102374.06;7413050;19;1807;-81
2023/02/16 07:46:19;;;;;;;;;;;;;;;19.24;54.38;102362.88;7413167;19;1533;-80
2023/02/16 07:48:49;;;;;;;;;;;;;;;19.23;53.89;102366.50;7415210;19;1845;-80
2023/02/16 07:51:22;;;;;;;;;;;;;;;19.34;53.87;102364.00;7414188;19;1502;-80
2023/02/16 07:53:53;;;;;;;;;;;;;;;19.26;54.04;102369.84;7413739;19;1602;-81
2023/02/16 07:56:21;;;;;;;;;;;;;;;19.45;53.95;102360.59;7411311;19;1501;-80
2023/02/16 07:58:50;;;;;;;;;;;;;;;19.17;53.81;102356.16;7417700;19;1545;-80
2023/02/16 08:01:19;;;;;;;;;;;;;;;19.21;52.51;102377.31;7414560;19;1458;-80
2023/02/16 08:03:47;;;;;;;;;;;;;;;19.18;53.26;102373.97;7418413;19;1439;-80
2023/02/16 08:06:16;;;;;;;;;;;;;;;19.15;52.55;102364.31;7416814;19;1486;-80
2023/02/16 08:08:45;;;;;;;;;;;;;;;19.19;52.83;102359.59;7413324;19;1846;-80
2023/02/16 08:11:18;;;;;;;;;;;;;;;19.22;52.67;102360.28;7418263;19;1079;-80
2023/02/16 08:13:46;;;;;;;;;;;;;;;19.30;52.78;102366.94;7416148;19;1941;-80
2023/02/16 08:16:16;;;;;;;;;;;;;;;19.30;52.58;102362.47;7417125;19;1470;-80
2023/02/16 08:18:44;;;;;;;;;;;;;;;19.34;52.65;102357.75;7417260;19;1427;-81
2023/02/16 08:21:16;;;;;;;;;;;;;;;19.30;53.36;102362.47;7416570;19;1839;-80
2023/02/16 08:23:46;;;;;;;;;;;;;;;19.44;52.97;102353.53;7418480;19;1727;-80
2023/02/16 08:26:18;;;;;;;;;;;;;;;19.47;53.14;102364.91;7416182;19;1628;-79
2023/02/16 08:28:50;;;;;;;;;;;;;;;19.47;53.31;102359.53;7417992;19;1852;-80
2023/02/16 08:31:21;;;;;;;;;;;;;;;19.57;53.07;102361.63;7415608;19;1938;-80
2023/02/16 08:33:50;;;;;;;;;;;;;;;19.58;53.21;102347.28;7417803;19;1753;-80
2023/02/16 08:36:19;;;;;;;;;;;;;;;19.74;52.83;102348.00;7417960;19;1740;-80
2023/02/16 08:38:49;;;;;;;;;;;;;;;19.75;52.83;102346.16;7418705;19;1669;-80
2023/02/16 08:41:21;;;;;;;;;;;;;;;19.28;54.44;102357.19;7418018;19;1750;-81
2023/02/16 08:43:51;;;;;;;;;;;;;;;18.79;55.59;102330.81;7417711;19;1832;-81
2023/02/16 08:46:20;;;;;;;;;;;;;;;18.84;55.41;102344.81;7415584;19;1894;-80
2023/02/16 08:48:48;;;;;;;;;;;;;;;19.34;54.21;102347.03;7415649;19;1858;-81
2023/02/16 08:51:19;;;;;;;;;;;;;;;19.72;53.40;102330.28;7412938;19;1557;-80
2023/02/16 08:53:48;;;;;;;;;;;;;;;19.74;53.49;102331.91;7417016;19;1684;-80
2023/02/16 08:56:18;;;;;;;;;;;;;;;19.26;54.59;102347.53;7417199;19;1821;-80
2023/02/16 08:58:50;;;;;;;;;;;;;;;18.18;56.81;102350.59;7416025;19;1764;-80
2023/02/16 09:01:19;;;;;;;;;;;;;;;18.69;54.74;102349.25;7412869;19;1608;-80
2023/02/16 09:03:48;;;;;;;;;;;;;;;19.38;53.04;102336.00;7414200;19;1833;-81
2023/02/16 09:06:19;;;;;;;;;;;;;;;19.66;52.41;102336.88;7417312;19;1670;-81
2023/02/16 09:08:48;;;;;;;;;;;;;;;19.64;52.77;102344.19;7416446;19;1850;-81
2023/02/16 09:11:17;;;;;;;;;;;;;;;19.69;53.01;102347.41;7414443;19;1745;-81
2023/02/16 09:13:46;;;;;;;;;;;;;;;19.71;53.22;102353.56;7410516;19;1855;-80
2023/02/16 09:16:19;;;;;;;;;;;;;;;19.64;53.51;102355.75;7409411;19;1801;-80
2023/02/16 09:18:49;;;;;;;;;;;;;;;19.61;53.62;102339.00;7413923;19;1578;-80
2023/02/16 09:21:20;;;;;;;;;;;;;;;19.54;53.76;102343.06;7411681;19;1921;-80
2023/02/16 09:23:49;;;;;;;;;;;;;;;19.54;53.62;102345.75;7411759;19;1483;-80
2023/02/16 09:26:18;;;;;;;;;;;;;;;19.48;53.56;102345.19;7414064;19;1545;-80
2023/02/16 09:28:47;;;;;;;;;;;;;;;19.48;53.87;102352.38;7414155;19;1849;-80
2023/02/16 09:31:24;;;;;;;;;;;;;;;19.54;53.81;102335.00;7411575;19;1526;-80
2023/02/16 09:33:53;;;;;;;;;;;;;;;19.56;53.77;102338.47;7414578;19;1894;-79
2023/02/16 09:36:21;;;;;;;;;;;;;;;19.65;53.72;102348.56;7409763;19;1572;-80
2023/02/16 09:38:50;;;;;;;;;;;;;;;19.69;53.46;102328.63;7413512;19;1385;-80
2023/02/16 09:41:24;;;;;;;;;;;;;;;19.62;53.67;102338.91;7409100;19;1572;-80
2023/02/16 09:43:56;;;;;;;;;;;;;;;19.56;53.90;102333.09;7408802;19;1490;-80
2023/02/16 09:46:28;;;;;;;;;;;;;;;19.55;53.95;102334.88;7406181;19;1506;-80
2023/02/16 09:48:57;;;;;;;;;;;;;;;19.56;54.14;102325.03;7410774;19;1863;-80
2023/02/16 09:51:27;;;;;;;;;;;;;;;19.54;53.94;102332.34;7412023;19;1681;-80
2023/02/16 09:53:58;;;;;;;;;;;;;;;19.57;53.95;102316.00;7410671;19;1558;-80
2023/02/16 09:56:31;;;;;;;;;;;;;;;19.52;54.37;102334.22;7410630;19;1751;-80
2023/02/16 09:59:02;;;;;;;;;;;;;;;19.61;54.04;102330.94;7411455;19;1812;-80
2023/02/16 10:01:37;;;;;;;;;;;;;;;19.55;53.98;102336.72;7411390;19;1724;-80
2023/02/16 10:04:22;;;;;;;;;;;;;;;19.64;53.96;102317.34;7413194;19;1791;-80
2023/02/16 10:06:57;;;;;;;;;;;;;;;19.63;54.03;102313.78;7412157;19;1625;-80
2023/02/16 10:09:28;;;;;;;;;;;;;;;19.60;54.38;102316.69;7412581;19;1841;-80
2023/02/16 10:11:59;;;;;;;;;;;;;;;19.64;54.38;102312.81;7412301;19;1403;-80
2023/02/16 10:14:32;;;;;;;;;;;;;;;19.70;54.00;102300.81;7403708;19;1505;-80
2023/02/16 10:17:23;;;;;;;;;;;;;;;19.71;54.40;102318.66;7408030;19;1431;-81
2023/02/16 10:19:56;;;;;;;;;;;;;;;19.72;54.32;102295.41;7411123;19;1649;-80
2023/02/16 10:22:29;;;;;;;;;;;;;;;19.76;54.20;102296.91;7412625;19;1553;-81
2023/02/16 10:25:01;;;;;;;;;;;;;;;19.74;54.14;102299.69;7408960;19;1553;-80
2023/02/16 10:27:33;;;;;;;;;;;;;;;19.76;54.65;102299.59;7411499;19;1470;-80
2023/02/16 10:30:01;;;;;;;;;;;;;;;19.84;54.43;102287.34;7410285;19;1910;-80
2023/02/16 10:32:37;;;;;;;;;;;;;;;19.93;54.87;102288.53;7410325;19;1525;-78
2023/02/16 10:35:13;;;;;;;;;;;;;;;19.39;55.79;102283.22;7420365;19;1141;-80
2023/02/16 10:37:58;;;;;;;;;;;;;;;18.96;57.29;102278.84;7420675;19;1046;-80
2023/02/16 10:40:33;;;;;;;;;;;;;;;18.90;58.33;102273.88;7419661;19;1755;-81
2023/02/16 10:43:05;;;;;;;;;;;;;;;19.52;56.17;102269.84;7420269;19;1637;-80
2023/02/16 10:45:38;;;;;;;;;;;;;;;19.82;55.74;102277.69;7413311;19;1946;-79
2023/02/16 10:48:10;;;;;;;;;;;;;;;19.40;57.03;102272.38;7411142;19;1527;-80
2023/02/16 10:50:40;;;;;;;;;;;;;;;19.11;57.78;102273.44;7414446;19;1753;-80
2023/02/16 10:53:12;;;;;;;;;;;;;;;19.03;59.12;102260.53;7413541;19;1539;-82
2023/02/16 10:55:41;;;;;;;;;;;;;;;19.48;58.36;102256.63;7416824;19;1513;-80
2023/02/16 10:58:18;;;;;;;;;;;;;;;19.79;57.39;102265.31;7413171;19;1815;-79
2023/02/16 11:00:50;;;;;;;;;;;;;;;19.46;56.97;102247.84;7412742;19;1879;-79
2023/02/16 11:03:25;;;;;;;;;;;;;;;19.06;55.02;102236.22;7415192;19;1860;-79
2023/02/16 11:05:55;;;;;;;;;;;;;;;18.77;57.00;102240.72;7411196;19;1472;-80
2023/02/16 11:08:24;;;;;;;;;;;;;;;19.03;56.63;102225.66;7413923;19;2279;-80
2023/02/16 11:10:54;;;;;;;;;;;;;;;19.37;56.01;102256.47;7414534;19;1747;-79
2023/02/16 11:13:27;;;;;;;;;;;;;;;19.59;54.68;102228.22;7412227;19;1727;-79
2023/02/16 11:15:57;;;;;;;;;;;;;;;19.15;55.23;102230.22;7410933;19;1506;-80
2023/02/16 11:18:31;;;;;;;;;;;;;;;18.80;55.94;102219.09;7414634;19;1463;-79
2023/02/16 11:21:01;;;;;;;;;;;;;;;18.55;56.93;102225.16;7413618;19;1744;-79
2023/02/16 11:23:30;;;;;;;;;;;;;;;18.37;57.56;102211.97;7415830;19;1736;-80
2023/02/16 11:26:01;;;;;;;;;;;;;;;18.28;57.81;102199.13;7413851;19;1515;-80
2023/02/16 11:28:31;;;;;;;;;;;;;;;18.20;57.83;102202.28;7417127;19;1861;-80
2023/02/16 11:31:05;;;;;;;;;;;;;;;18.11;57.94;102189.47;7416572;19;1536;-80
2023/02/16 11:33:39;;;;;;;;;;;;;;;18.10;58.46;102209.16;7416810;19;1096;-80
2023/02/16 11:36:19;;;;;;;;;;;;;;;18.06;58.51;102194.25;7410804;19;1921;-79
2023/02/16 11:38:57;;;;;;;;;;;;;;;18.03;58.30;102200.66;7416390;19;1764;-80
2023/02/16 11:41:27;;;;;;;;;;;;;;;17.98;58.48;102189.38;7415452;19;1957;-80
2023/02/16 11:43:56;;;;;;;;;;;;;;;17.97;58.58;102186.81;7414791;19;1886;-80
2023/02/16 11:46:25;;;;;;;;;;;;;;;17.87;58.43;102163.28;7411003;19;1839;-80
2023/02/16 11:48:56;;;;;;;;;;;;;;;17.83;58.75;102168.88;7414360;19;1847;-80
2023/02/16 11:51:35;;;;;;;;;;;;;;;17.81;58.91;102179.66;7414944;19;1846;-80
2023/02/16 11:54:06;;;;;;;;;;;;;;;17.74;59.19;102148.88;7411442;19;1732;-79
2023/02/16 11:56:35;;;;;;;;;;;;;;;17.70;59.33;102150.88;7414297;19;1772;-80
2023/02/16 11:59:08;;;;;;;;;;;;;;;17.71;59.25;102159.78;7413890;19;1755;-80
2023/02/16 12:01:47;;;;;;;;;;;;;;;17.71;59.29;102159.78;7410922;19;1534;-80
2023/02/16 12:04:25;;;;;;;;;;;;;;;17.60;59.15;102135.50;7417888;19;1120;-80
2023/02/16 12:06:59;;;;;;;;;;;;;;;17.62;59.25;102138.94;7414570;19;1775;-79
2023/02/16 12:09:30;;;;;;;;;;;;;;;17.59;59.32;102136.47;7412913;19;1854;-79
2023/02/16 12:12:02;;;;;;;;;;;;;;;17.57;59.11;102130.34;7409187;19;1580;-80
2023/02/16 12:14:40;;;;;;;;;;;;;;;17.56;59.10;102123.25;7412842;19;1571;-80
2023/02/16 12:17:15;;;;;;;;;;;;;;;17.55;58.51;102126.88;7413194;19;1689;-80
2023/02/16 12:19:47;;;;;;;;;;;;;;;17.58;58.18;102124.88;7414874;19;1893;-80
2023/02/16 12:22:27;;;;;;;;;;;;;;;17.71;58.00;102122.31;7413325;19;1832;-80
2023/02/16 12:25:04;;;;;;;;;;;;;;;17.91;57.66;102133.66;7413737;19;1830;-80
2023/02/16 12:27:36;;;;;;;;;;;;;;;17.77;57.84;102116.59;7414430;19;1996;-79
2023/02/16 12:30:10;;;;;;;;;;;;;;;17.66;58.21;102105.69;7412330;19;1852;-79
2023/02/16 12:32:45;;;;;;;;;;;;;;;17.58;58.55;102108.81;7412885;19;1855;-80
2023/02/16 12:35:23;;;;;;;;;;;;;;;17.69;58.86;102110.88;7411910;19;1748;-80
2023/02/16 12:37:56;;;;;;;;;;;;;;;17.83;58.54;102104.66;7411781;19;1464;-79
2023/02/16 12:40:30;;;;;;;;;;;;;;;17.84;58.41;102096.53;7414033;19;1899;-80
2023/02/16 12:43:05;;;;;;;;;;;;;;;17.82;58.84;102082.38;7411780;19;1376;-79
2023/02/16 12:45:36;;;;;;;;;;;;;;;17.87;58.46;102090.16;7412494;19;1863;-80
2023/02/16 12:48:10;;;;;;;;;;;;;;;17.83;58.72;102075.22;7408024;19;1825;-79
2023/02/16 12:50:43;;;;;;;;;;;;;;;17.76;59.13;102082.75;7407777;19;1822;-79
2023/02/16 12:53:20;;;;;;;;;;;;;;;17.78;59.35;102070.13;7413028;19;1478;-79
2023/02/16 12:55:51;;;;;;;;;;;;;;;18.11;58.27;102087.75;7410901;19;1961;-79
2023/02/16 12:58:22;;;;;;;;;;;;;;;19.02;56.24;102080.03;7408707;19;1859;-79
2023/02/16 13:00:54;;;;;;;;;;;;;;;19.82;54.02;102076.38;6379636;19;10000609;-80
2023/02/16 13:03:27;;;;;;;;;;;;;;;19.76;54.47;102064.25;7398574;19;1545;-80
2023/02/16 13:06:05;;;;;;;;;;;;;;;18.93;56.29;102074.44;7402305;19;1450;-79
2023/02/16 13:08:38;;;;;;;;;;;;;;;18.86;56.60;102071.28;7402166;19;1776;-80
2023/02/16 13:11:12;;;;;;;;;;;;;;;19.36;55.20;102061.66;7398497;19;1843;-79
2023/02/16 13:13:42;;;;;;;;;;;;;;;19.64;54.68;102059.72;7399957;19;1598;-80
2023/02/16 13:16:16;;;;;;;;;;;;;;;19.90;53.78;102065.94;7400847;19;1742;-80
2023/02/16 13:18:46;;;;;;;;;;;;;;;19.84;54.00;102059.19;7399690;19;1568;-80
2023/02/16 13:21:38;;;;;;;;;;;;;;;19.67;53.98;102044.22;7402823;19;1835;-80
2023/02/16 13:24:10;;;;;;;;;;;;;;;19.62;54.70;102053.59;7400203;19;1511;-80
2023/02/16 13:26:46;;;;;;;;;;;;;;;19.65;54.95;102046.16;7402264;19;1840;-80
2023/02/16 13:29:29;;;;;;;;;;;;;;;19.68;54.63;102043.28;7400614;19;1828;-79
2023/02/16 13:32:08;;;;;;;;;;;;;;;19.67;54.77;102041.56;7400056;19;2058;-79
2023/02/16 13:34:54;;;;;;;;;;;;;;;19.75;55.07;102041.03;7404945;19;1616;-79
2023/02/16 13:37:53;;;;;;;;;;;;;;;19.77;54.90;102049.84;7404941;19;1837;-80
2023/02/16 13:40:32;;;;;;;;;;;;;;;19.78;55.17;102050.72;7403877;19;1748;-79
2023/02/16 13:43:16;;;;;;;;;;;;;;;19.80;54.98;102043.41;7404269;19;1533;-80
2023/02/16 13:45:46;;;;;;;;;;;;;;;19.76;55.06;102037.41;7404515;19;1502;-79
2023/02/16 13:48:16;;;;;;;;;;;;;;;19.80;55.21;102032.69;7402381;19;1567;-80
2023/02/16 13:50:44;;;;;;;;;;;;;;;19.81;54.80;102040.59;7401657;19;1826;-79
2023/02/16 13:53:23;;;;;;;;;;;;;;;19.81;55.01;102029.88;7404307;19;1452;-80
2023/02/16 13:56:11;;;;;;;;;;;;;;;19.71;54.55;102026.13;7404463;19;1342;-80
2023/02/16 13:58:40;;;;;;;;;;;;;;;19.70;54.39;102021.72;7408480;19;1508;-80